sensor_id;sensor_type;location;lat;lon;timestamp;pressure;altitude;pressure_sealevel;temperature;humidity
55410;BME280;41279;43.546;16.426;2023-02-28T00:00:16;52510.41;;;-146.77;65.41
55410;BME280;41279;43.546;16.426;2023-02-28T00:02:42;52510.41;;;-146.77;68.70
55410;BME280;41279;43.546;16.426;2023-02-28T00:05:12;52502.41;;;-146.77;69.28
55410;BME280;41279;43.546;16.426;2023-02-28T00:07:38;52492.41;;;-146.77;69.20
55410;BME280;41279;43.546;16.426;2023-02-28T00:10:08;52474.38;;;-146.77;66.50
55410;BME280;41279;43.546;16.426;2023-02-28T00:12:34;52494.41;;;-146.77;66.60
55410;BME280;41279;43.546;16.426;2023-02-28T00:15:01;52464.38;;;-146.77;69.50
55410;BME280;41279;43.546;16.426;2023-02-28T00:17:27;52498.41;;;-146.77;66.88
55410;BME280;41279;43.546;16.426;2023-02-28T00:19:53;52494.41;;;-146.77;65.53
55410;BME280;41279;43.546;16.426;2023-02-28T00:22:20;52488.41;;;-146.77;67.01
55410;BME280;41279;43.546;16.426;2023-02-28T00:24:46;52476.38;;;-146.77;67.04
55410;BME280;41279;43.546;16.426;2023-02-28T00:27:12;52494.41;;;-146.77;65.30
55410;BME280;41279;43.546;16.426;2023-02-28T00:29:38;52468.38;;;-146.77;67.00
55410;BME280;41279;43.546;16.426;2023-02-28T00:32:05;52514.41;;;-146.77;63.86
55410;BME280;41279;43.546;16.426;2023-02-28T00:34:30;52508.41;;;-146.77;64.84
55410;BME280;41279;43.546;16.426;2023-02-28T00:36:56;52478.38;;;-146.77;64.18
55410;BME280;41279;43.546;16.426;2023-02-28T00:39:22;52502.41;;;-146.77;64.20
55410;BME280;41279;43.546;16.426;2023-02-28T00:41:47;52480.38;;;-146.77;67.88
55410;BME280;41279;43.546;16.426;2023-02-28T00:44:12;52506.41;;;-146.77;64.48
55410;BME280;41279;43.546;16.426;2023-02-28T00:46:38;52514.41;;;-146.77;61.91
55410;BME280;41279;43.546;16.426;2023-02-28T00:49:03;52482.38;;;-146.77;62.98
55410;BME280;41279;43.546;16.426;2023-02-28T00:51:29;52474.38;;;-146.77;65.14
55410;BME280;41279;43.546;16.426;2023-02-28T00:53:55;52470.38;;;-146.77;63.91
55410;BME280;41279;43.546;16.426;2023-02-28T00:56:20;52480.38;;;-146.77;64.15
55410;BME280;41279;43.546;16.426;2023-02-28T00:58:46;52514.41;;;-146.77;63.29
55410;BME280;41279;43.546;16.426;2023-02-28T01:01:11;52520.44;;;-146.77;60.30
55410;BME280;41279;43.546;16.426;2023-02-28T01:03:37;52484.38;;;-146.77;62.59
55410;BME280;41279;43.546;16.426;2023-02-28T01:06:03;52546.47;;;-146.77;59.42
55410;BME280;41279;43.546;16.426;2023-02-28T01:08:29;52504.41;;;-146.77;59.83
55410;BME280;41279;43.546;16.426;2023-02-28T01:10:55;52482.38;;;-146.77;62.16
55410;BME280;41279;43.546;16.426;2023-02-28T01:13:21;52546.47;;;-146.77;56.07
55410;BME280;41279;43.546;16.426;2023-02-28T01:15:52;52516.41;;;-146.77;56.78
55410;BME280;41279;43.546;16.426;2023-02-28T01:18:20;52496.41;;;-146.77;57.06
55410;BME280;41279;43.546;16.426;2023-02-28T01:20:46;52548.47;;;-146.77;55.71
55410;BME280;41279;43.546;16.426;2023-02-28T01:23:12;52534.44;;;-146.77;55.56
55410;BME280;41279;43.546;16.426;2023-02-28T01:25:37;52516.41;;;-146.77;57.93
55410;BME280;41279;43.546;16.426;2023-02-28T01:28:03;52550.47;;;-146.77;55.79
55410;BME280;41279;43.546;16.426;2023-02-28T01:30:29;52498.41;;;-146.77;59.20
55410;BME280;41279;43.546;16.426;2023-02-28T01:32:54;52518.44;;;-146.77;57.77
55410;BME280;41279;43.546;16.426;2023-02-28T01:35:20;52488.41;;;-146.77;59.64
55410;BME280;41279;43.546;16.426;2023-02-28T01:37:45;52478.38;;;-146.77;60.61
55410;BME280;41279;43.546;16.426;2023-02-28T01:40:12;52490.41;;;-146.77;62.28
55410;BME280;41279;43.546;16.426;2023-02-28T01:42:37;52480.38;;;-146.77;64.43
55410;BME280;41279;43.546;16.426;2023-02-28T01:47:32;52490.41;;;-146.77;64.79
55410;BME280;41279;43.546;16.426;2023-02-28T01:50:01;52480.38;;;-146.77;63.86
55410;BME280;41279;43.546;16.426;2023-02-28T01:52:27;52492.41;;;-146.77;63.27
55410;BME280;41279;43.546;16.426;2023-02-28T01:54:55;52474.38;;;-146.77;63.14
55410;BME280;41279;43.546;16.426;2023-02-28T01:57:25;52476.38;;;-146.77;67.61
55410;BME280;41279;43.546;16.426;2023-02-28T01:59:57;52468.38;;;-146.77;68.01
55410;BME280;41279;43.546;16.426;2023-02-28T02:02:25;52470.38;;;-146.77;68.71
55410;BME280;41279;43.546;16.426;2023-02-28T02:05:07;52444.34;;;-146.77;70.32
55410;BME280;41279;43.546;16.426;2023-02-28T02:07:35;52470.38;;;-146.77;68.58
55410;BME280;41279;43.546;16.426;2023-02-28T02:10:16;52470.38;;;-146.77;69.61
55410;BME280;41279;43.546;16.426;2023-02-28T02:17:59;52490.41;;;-146.77;68.38
55410;BME280;41279;43.546;16.426;2023-02-28T02:32:18;52494.41;;;-146.77;67.89
55410;BME280;41279;43.546;16.426;2023-02-28T02:35:02;52490.41;;;-146.77;67.12
55410;BME280;41279;43.546;16.426;2023-02-28T02:40:31;52490.41;;;-146.77;67.71
55410;BME280;41279;43.546;16.426;2023-02-28T02:43:06;52472.38;;;-146.77;68.28
55410;BME280;41279;43.546;16.426;2023-02-28T02:45:41;52454.34;;;-146.77;68.70
55410;BME280;41279;43.546;16.426;2023-02-28T02:48:11;52456.38;;;-146.77;70.03
55410;BME280;41279;43.546;16.426;2023-02-28T02:51:07;52448.34;;;-146.77;70.21
55410;BME280;41279;43.546;16.426;2023-02-28T02:53:41;52482.38;;;-146.77;71.56
55410;BME280;41279;43.546;16.426;2023-02-28T02:56:10;52454.34;;;-146.77;70.44
55410;BME280;41279;43.546;16.426;2023-02-28T02:58:40;52492.41;;;-146.77;71.18
55410;BME280;41279;43.546;16.426;2023-02-28T03:01:08;52440.34;;;-146.77;70.03
55410;BME280;41279;43.546;16.426;2023-02-28T03:03:37;52470.38;;;-146.77;71.17
55410;BME280;41279;43.546;16.426;2023-02-28T03:06:03;52454.34;;;-146.77;72.22
55410;BME280;41279;43.546;16.426;2023-02-28T03:08:34;52456.38;;;-146.77;70.70
55410;BME280;41279;43.546;16.426;2023-02-28T03:11:02;52476.38;;;-146.77;70.68
55410;BME280;41279;43.546;16.426;2023-02-28T03:16:49;52456.38;;;-146.77;73.98
55410;BME280;41279;43.546;16.426;2023-02-28T03:24:37;52478.38;;;-146.77;75.18
55410;BME280;41279;43.546;16.426;2023-02-28T03:29:46;52474.38;;;-146.77;75.28
55410;BME280;41279;43.546;16.426;2023-02-28T03:32:18;52482.38;;;-146.77;75.65
55410;BME280;41279;43.546;16.426;2023-02-28T03:37:37;52462.38;;;-146.77;75.07
55410;BME280;41279;43.546;16.426;2023-02-28T03:40:10;52462.38;;;-146.77;73.89
55410;BME280;41279;43.546;16.426;2023-02-28T03:42:41;52498.41;;;-146.77;73.27
55410;BME280;41279;43.546;16.426;2023-02-28T03:45:19;52452.34;;;-146.77;73.40
55410;BME280;41279;43.546;16.426;2023-02-28T03:48:12;52478.38;;;-146.77;74.35
55410;BME280;41279;43.546;16.426;2023-02-28T03:50:43;52468.38;;;-146.77;74.33
55410;BME280;41279;43.546;16.426;2023-02-28T03:53:29;52466.38;;;-146.77;74.57
55410;BME280;41279;43.546;16.426;2023-02-28T03:56:01;52476.38;;;-146.77;70.03
55410;BME280;41279;43.546;16.426;2023-02-28T03:59:21;52492.41;;;-146.77;69.92
55410;BME280;41279;43.546;16.426;2023-02-28T04:01:31;52468.38;;;-146.77;67.96
55410;BME280;41279;43.546;16.426;2023-02-28T04:03:59;52466.38;;;-146.77;72.53
55410;BME280;41279;43.546;16.426;2023-02-28T04:06:25;52502.41;;;-146.77;67.17
55410;BME280;41279;43.546;16.426;2023-02-28T04:08:51;52502.41;;;-146.77;66.55
55410;BME280;41279;43.546;16.426;2023-02-28T04:13:48;52488.41;;;-146.77;69.37
55410;BME280;41279;43.546;16.426;2023-02-28T04:16:13;52482.38;;;-146.77;70.41
55410;BME280;41279;43.546;16.426;2023-02-28T04:18:45;52484.38;;;-146.77;70.42
55410;BME280;41279;43.546;16.426;2023-02-28T04:21:11;52488.41;;;-146.77;70.26
55410;BME280;41279;43.546;16.426;2023-02-28T04:23:36;52514.41;;;-146.77;67.72
55410;BME280;41279;43.546;16.426;2023-02-28T04:26:02;52480.38;;;-146.77;69.69
55410;BME280;41279;43.546;16.426;2023-02-28T04:28:29;52518.44;;;-146.77;68.56
55410;BME280;41279;43.546;16.426;2023-02-28T04:30:58;52468.38;;;-146.77;71.29
55410;BME280;41279;43.546;16.426;2023-02-28T04:33:24;52484.38;;;-146.77;71.37
55410;BME280;41279;43.546;16.426;2023-02-28T04:36:04;52480.38;;;-146.77;69.33
55410;BME280;41279;43.546;16.426;2023-02-28T04:38:33;52470.38;;;-146.77;69.71
55410;BME280;41279;43.546;16.426;2023-02-28T04:41:00;52526.44;;;-146.77;65.30
55410;BME280;41279;43.546;16.426;2023-02-28T04:43:26;52500.41;;;-146.77;61.29
55410;BME280;41279;43.546;16.426;2023-02-28T04:45:53;52542.44;;;-146.77;60.73
55410;BME280;41279;43.546;16.426;2023-02-28T04:48:23;52544.44;;;-146.77;59.34
55410;BME280;41279;43.546;16.426;2023-02-28T04:50:49;52532.44;;;-146.77;60.65
55410;BME280;41279;43.546;16.426;2023-02-28T04:53:14;52506.41;;;-146.77;63.63
55410;BME280;41279;43.546;16.426;2023-02-28T04:55:39;52486.41;;;-146.77;67.67
55410;BME280;41279;43.546;16.426;2023-02-28T04:58:05;52492.41;;;-146.77;65.95
55410;BME280;41279;43.546;16.426;2023-02-28T05:00:30;52480.38;;;-146.77;65.45
55410;BME280;41279;43.546;16.426;2023-02-28T05:02:56;52562.47;;;-146.77;60.76
55410;BME280;41279;43.546;16.426;2023-02-28T05:05:21;52530.44;;;-146.77;61.58
55410;BME280;41279;43.546;16.426;2023-02-28T05:07:47;52482.38;;;-146.77;64.80
55410;BME280;41279;43.546;16.426;2023-02-28T05:10:12;52510.41;;;-146.77;67.07
55410;BME280;41279;43.546;16.426;2023-02-28T05:12:37;52502.41;;;-146.77;68.89
55410;BME280;41279;43.546;16.426;2023-02-28T05:15:04;52498.41;;;-146.77;68.93
55410;BME280;41279;43.546;16.426;2023-02-28T05:17:30;52518.44;;;-146.77;67.69
55410;BME280;41279;43.546;16.426;2023-02-28T05:19:56;52504.41;;;-146.77;71.28
55410;BME280;41279;43.546;16.426;2023-02-28T05:22:21;52514.41;;;-146.77;69.33
55410;BME280;41279;43.546;16.426;2023-02-28T05:24:47;52498.41;;;-146.77;69.78
55410;BME280;41279;43.546;16.426;2023-02-28T05:27:12;52508.41;;;-146.77;68.69
55410;BME280;41279;43.546;16.426;2023-02-28T05:29:38;52522.44;;;-146.77;68.52
55410;BME280;41279;43.546;16.426;2023-02-28T05:32:08;52508.41;;;-146.77;66.22
55410;BME280;41279;43.546;16.426;2023-02-28T05:34:36;52514.41;;;-146.77;67.89
55410;BME280;41279;43.546;16.426;2023-02-28T05:37:01;52502.41;;;-146.77;71.28
55410;BME280;41279;43.546;16.426;2023-02-28T05:39:27;52510.41;;;-146.77;75.00
55410;BME280;41279;43.546;16.426;2023-02-28T05:41:52;52510.41;;;-146.77;72.76
55410;BME280;41279;43.546;16.426;2023-02-28T05:44:18;52490.41;;;-146.77;73.33
55410;BME280;41279;43.546;16.426;2023-02-28T05:46:43;52518.44;;;-146.77;72.37
55410;BME280;41279;43.546;16.426;2023-02-28T05:49:09;52528.44;;;-146.77;72.28
55410;BME280;41279;43.546;16.426;2023-02-28T05:51:34;52522.44;;;-146.77;69.79
55410;BME280;41279;43.546;16.426;2023-02-28T05:54:01;52540.44;;;-146.77;66.30
55410;BME280;41279;43.546;16.426;2023-02-28T05:56:28;52520.44;;;-146.77;72.53
55410;BME280;41279;43.546;16.426;2023-02-28T05:58:53;52522.44;;;-146.77;70.00
55410;BME280;41279;43.546;16.426;2023-02-28T06:01:36;52474.38;;;-146.77;70.19
55410;BME280;41279;43.546;16.426;2023-02-28T06:04:03;52496.41;;;-146.77;69.51
55410;BME280;41279;43.546;16.426;2023-02-28T06:06:29;52502.41;;;-146.77;68.35
55410;BME280;41279;43.546;16.426;2023-02-28T06:08:55;52522.44;;;-146.77;70.84
55410;BME280;41279;43.546;16.426;2023-02-28T06:11:21;52486.41;;;-146.77;73.21
55410;BME280;41279;43.546;16.426;2023-02-28T06:13:54;52500.41;;;-146.77;74.26
55410;BME280;41279;43.546;16.426;2023-02-28T06:16:20;52526.44;;;-146.77;71.26
55410;BME280;41279;43.546;16.426;2023-02-28T06:18:46;52542.44;;;-146.77;66.39
55410;BME280;41279;43.546;16.426;2023-02-28T06:21:12;52560.47;;;-146.77;62.19
55410;BME280;41279;43.546;16.426;2023-02-28T06:23:38;52534.44;;;-146.77;65.79
55410;BME280;41279;43.546;16.426;2023-02-28T06:26:04;52506.41;;;-146.77;68.70
55410;BME280;41279;43.546;16.426;2023-02-28T06:28:30;52470.38;;;-146.77;70.94
55410;BME280;41279;43.546;16.426;2023-02-28T06:30:55;52492.41;;;-146.77;72.61
55410;BME280;41279;43.546;16.426;2023-02-28T06:33:21;52530.44;;;-146.77;68.50
55410;BME280;41279;43.546;16.426;2023-02-28T06:35:47;52550.47;;;-146.77;65.13
55410;BME280;41279;43.546;16.426;2023-02-28T06:38:15;52550.47;;;-146.77;70.71
55410;BME280;41279;43.546;16.426;2023-02-28T06:40:40;52530.44;;;-146.77;70.23
55410;BME280;41279;43.546;16.426;2023-02-28T06:43:06;52532.44;;;-146.77;67.82
55410;BME280;41279;43.546;16.426;2023-02-28T06:45:32;52498.41;;;-146.77;72.01
55410;BME280;41279;43.546;16.426;2023-02-28T06:47:58;52522.44;;;-146.77;74.52
55410;BME280;41279;43.546;16.426;2023-02-28T06:50:25;52502.41;;;-146.77;74.30
55410;BME280;41279;43.546;16.426;2023-02-28T06:52:50;52514.41;;;-146.77;71.08
55410;BME280;41279;43.546;16.426;2023-02-28T06:55:19;52518.44;;;-146.77;71.55
55410;BME280;41279;43.546;16.426;2023-02-28T06:57:44;52538.44;;;-146.77;71.84
55410;BME280;41279;43.546;16.426;2023-02-28T07:00:10;52514.41;;;-146.77;72.31
55410;BME280;41279;43.546;16.426;2023-02-28T07:02:36;52592.50;;;-146.77;66.83
55410;BME280;41279;43.546;16.426;2023-02-28T07:05:03;52556.47;;;-146.77;65.48
55410;BME280;41279;43.546;16.426;2023-02-28T07:07:30;52550.47;;;-146.77;67.95
55410;BME280;41279;43.546;16.426;2023-02-28T07:09:55;52502.41;;;-146.77;71.08
55410;BME280;41279;43.546;16.426;2023-02-28T07:12:21;52534.44;;;-146.77;71.02
55410;BME280;41279;43.546;16.426;2023-02-28T07:14:47;52518.44;;;-146.77;84.35
55410;BME280;41279;43.546;16.426;2023-02-28T07:17:12;52558.47;;;-146.77;96.83
55410;BME280;41279;43.546;16.426;2023-02-28T07:19:39;52590.50;;;-146.77;100.00
55410;BME280;41279;43.546;16.426;2023-02-28T07:22:05;52574.47;;;-146.77;100.00
55410;BME280;41279;43.546;16.426;2023-02-28T07:24:30;52612.53;;;-146.77;100.00
55410;BME280;41279;43.546;16.426;2023-02-28T07:26:56;52618.53;;;-146.77;100.00
55410;BME280;41279;43.546;16.426;2023-02-28T07:29:22;52674.59;;;-146.77;100.00
55410;BME280;41279;43.546;16.426;2023-02-28T07:31:47;52682.59;;;-146.77;100.00
55410;BME280;41279;43.546;16.426;2023-02-28T07:34:13;52672.59;;;-146.77;100.00
55410;BME280;41279;43.546;16.426;2023-02-28T07:36:39;52708.63;;;-146.77;100.00
55410;BME280;41279;43.546;16.426;2023-02-28T07:39:04;52700.63;;;-146.77;100.00
55410;BME280;41279;43.546;16.426;2023-02-28T07:41:30;52634.53;;;-146.77;100.00
55410;BME280;41279;43.546;16.426;2023-02-28T07:44:05;52686.59;;;-146.77;100.00
55410;BME280;41279;43.546;16.426;2023-02-28T07:46:30;52582.50;;;-146.77;100.00
55410;BME280;41279;43.546;16.426;2023-02-28T07:49:00;52658.56;;;-146.77;100.00
55410;BME280;41279;43.546;16.426;2023-02-28T07:51:28;52654.56;;;-146.77;100.00
55410;BME280;41279;43.546;16.426;2023-02-28T07:53:55;52626.53;;;-146.77;100.00
55410;BME280;41279;43.546;16.426;2023-02-28T07:56:21;52580.50;;;-146.77;100.00
55410;BME280;41279;43.546;16.426;2023-02-28T07:58:47;52622.53;;;-146.77;100.00
55410;BME280;41279;43.546;16.426;2023-02-28T08:01:12;52616.53;;;-146.77;100.00
55410;BME280;41279;43.546;16.426;2023-02-28T08:03:39;52594.50;;;-146.77;100.00
55410;BME280;41279;43.546;16.426;2023-02-28T08:06:06;52620.53;;;-146.77;100.00
55410;BME280;41279;43.546;16.426;2023-02-28T08:08:32;52616.53;;;-146.77;100.00
55410;BME280;41279;43.546;16.426;2023-02-28T08:11:01;52578.50;;;-146.77;100.00
55410;BME280;41279;43.546;16.426;2023-02-28T08:13:29;52680.59;;;-146.77;100.00
55410;BME280;41279;43.546;16.426;2023-02-28T08:15:55;52752.69;;;-146.77;100.00
55410;BME280;41279;43.546;16.426;2023-02-28T08:18:22;52868.81;;;-146.77;100.00
55410;BME280;41279;43.546;16.426;2023-02-28T08:20:47;52718.63;;;-146.77;100.00
55410;BME280;41279;43.546;16.426;2023-02-28T08:23:13;52860.78;;;-146.77;100.00
55410;BME280;41279;43.546;16.426;2023-02-28T08:25:39;52626.53;;;-146.77;100.00
55410;BME280;41279;43.546;16.426;2023-02-28T08:28:04;52714.63;;;-146.77;100.00
55410;BME280;41279;43.546;16.426;2023-02-28T08:30:29;52614.53;;;-146.77;100.00
55410;BME280;41279;43.546;16.426;2023-02-28T08:32:55;52666.59;;;-146.77;100.00
55410;BME280;41279;43.546;16.426;2023-02-28T08:35:21;52650.56;;;-146.77;100.00
55410;BME280;41279;43.546;16.426;2023-02-28T08:37:48;52586.50;;;-146.77;100.00
55410;BME280;41279;43.546;16.426;2023-02-28T08:40:14;52674.59;;;-146.77;100.00
55410;BME280;41279;43.546;16.426;2023-02-28T08:42:46;52594.50;;;-146.77;100.00
55410;BME280;41279;43.546;16.426;2023-02-28T08:45:13;52654.56;;;-146.77;100.00
55410;BME280;41279;43.546;16.426;2023-02-28T08:47:39;52566.47;;;-146.77;100.00
55410;BME280;41279;43.546;16.426;2023-02-28T08:50:05;52602.50;;;-146.77;100.00
55410;BME280;41279;43.546;16.426;2023-02-28T08:52:30;52616.53;;;-146.77;100.00
55410;BME280;41279;43.546;16.426;2023-02-28T08:54:55;52658.56;;;-146.77;100.00
55410;BME280;41279;43.546;16.426;2023-02-28T08:57:21;52670.59;;;-146.77;99.72
55410;BME280;41279;43.546;16.426;2023-02-28T08:59:46;52598.50;;;-146.77;100.00
55410;BME280;41279;43.546;16.426;2023-02-28T09:02:13;52648.56;;;-146.77;100.00
55410;BME280;41279;43.546;16.426;2023-02-28T09:04:39;52626.53;;;-146.77;100.00
55410;BME280;41279;43.546;16.426;2023-02-28T09:07:05;52662.56;;;-146.77;100.00
55410;BME280;41279;43.546;16.426;2023-02-28T09:09:30;52626.53;;;-146.77;100.00
55410;BME280;41279;43.546;16.426;2023-02-28T09:11:56;52682.59;;;-146.77;100.00
55410;BME280;41279;43.546;16.426;2023-02-28T09:14:22;52662.56;;;-146.77;90.17
55410;BME280;41279;43.546;16.426;2023-02-28T09:16:55;52630.53;;;-146.77;87.49
55410;BME280;41279;43.546;16.426;2023-02-28T09:19:34;52662.56;;;-146.77;86.82
55410;BME280;41279;43.546;16.426;2023-02-28T09:21:59;52682.59;;;-146.77;81.30
55410;BME280;41279;43.546;16.426;2023-02-28T09:24:24;52710.63;;;-146.77;82.53
55410;BME280;41279;43.546;16.426;2023-02-28T09:26:50;52694.63;;;-146.77;82.33
55410;BME280;41279;43.546;16.426;2023-02-28T09:29:15;52684.59;;;-146.77;80.95
55410;BME280;41279;43.546;16.426;2023-02-28T09:31:42;52690.59;;;-146.77;81.20
55410;BME280;41279;43.546;16.426;2023-02-28T09:34:08;52632.53;;;-146.77;83.63
55410;BME280;41279;43.546;16.426;2023-02-28T09:36:33;52700.63;;;-146.77;81.46
55410;BME280;41279;43.546;16.426;2023-02-28T09:39:00;52678.59;;;-146.77;82.34
55410;BME280;41279;43.546;16.426;2023-02-28T09:41:26;52690.59;;;-146.77;79.55
55410;BME280;41279;43.546;16.426;2023-02-28T09:43:59;52662.56;;;-146.77;76.24
55410;BME280;41279;43.546;16.426;2023-02-28T09:46:41;52586.50;;;-146.77;80.27
55410;BME280;41279;43.546;16.426;2023-02-28T09:49:14;52588.50;;;-146.77;83.14
55410;BME280;41279;43.546;16.426;2023-02-28T09:51:58;52620.53;;;-146.77;79.94
55410;BME280;41279;43.546;16.426;2023-02-28T09:54:28;52728.66;;;-146.77;73.54
55410;BME280;41279;43.546;16.426;2023-02-28T09:57:13;52722.66;;;-146.77;70.17
55410;BME280;41279;43.546;16.426;2023-02-28T10:02:54;52658.56;;;-146.77;69.81
55410;BME280;41279;43.546;16.426;2023-02-28T10:05:27;52706.63;;;-146.77;70.39
55410;BME280;41279;43.546;16.426;2023-02-28T10:10:50;52764.69;;;-146.77;65.58
55410;BME280;41279;43.546;16.426;2023-02-28T10:13:49;52696.63;;;-146.77;65.83
55410;BME280;41279;43.546;16.426;2023-02-28T10:17:23;52692.63;;;-146.77;66.18
55410;BME280;41279;43.546;16.426;2023-02-28T10:25:00;52688.59;;;-146.77;61.30
55410;BME280;41279;43.546;16.426;2023-02-28T10:27:20;52800.72;;;-146.77;59.14
55410;BME280;41279;43.546;16.426;2023-02-28T10:29:49;52774.69;;;-146.77;53.47
55410;BME280;41279;43.546;16.426;2023-02-28T10:32:18;52782.72;;;-146.77;56.65
55410;BME280;41279;43.546;16.426;2023-02-28T10:34:43;52760.69;;;-146.77;54.86
55410;BME280;41279;43.546;16.426;2023-02-28T10:37:11;52744.66;;;-146.77;53.98
55410;BME280;41279;43.546;16.426;2023-02-28T10:39:43;52794.72;;;-146.77;54.33
55410;BME280;41279;43.546;16.426;2023-02-28T10:44:47;52702.63;;;-146.77;59.64
55410;BME280;41279;43.546;16.426;2023-02-28T10:47:17;52674.59;;;-146.77;62.33
55410;BME280;41279;43.546;16.426;2023-02-28T10:49:49;52638.56;;;-146.77;71.50
55410;BME280;41279;43.546;16.426;2023-02-28T10:52:33;52648.56;;;-146.77;70.76
55410;BME280;41279;43.546;16.426;2023-02-28T10:55:21;52650.56;;;-146.77;75.82
55410;BME280;41279;43.546;16.426;2023-02-28T10:57:47;52650.56;;;-146.77;72.76
55410;BME280;41279;43.546;16.426;2023-02-28T11:00:24;52624.53;;;-146.77;77.55
55410;BME280;41279;43.546;16.426;2023-02-28T11:02:51;52638.56;;;-146.77;76.54
55410;BME280;41279;43.546;16.426;2023-02-28T11:05:33;52626.53;;;-146.77;74.18
55410;BME280;41279;43.546;16.426;2023-02-28T11:08:15;52672.59;;;-146.77;71.84
55410;BME280;41279;43.546;16.426;2023-02-28T11:10:46;52680.59;;;-146.77;76.08
55410;BME280;41279;43.546;16.426;2023-02-28T11:13:20;52656.56;;;-146.77;75.84
55410;BME280;41279;43.546;16.426;2023-02-28T11:15:57;52806.75;;;-146.77;65.58
55410;BME280;41279;43.546;16.426;2023-02-28T11:18:37;52748.66;;;-146.77;68.48
55410;BME280;41279;43.546;16.426;2023-02-28T11:21:05;52652.56;;;-146.77;70.17
55410;BME280;41279;43.546;16.426;2023-02-28T11:23:33;52696.63;;;-146.77;73.66
55410;BME280;41279;43.546;16.426;2023-02-28T11:26:02;52692.63;;;-146.77;78.99
55410;BME280;41279;43.546;16.426;2023-02-28T11:28:35;52620.53;;;-146.77;73.44
55410;BME280;41279;43.546;16.426;2023-02-28T11:31:05;52714.63;;;-146.77;76.02
55410;BME280;41279;43.546;16.426;2023-02-28T11:33:42;52774.69;;;-146.77;68.20
55410;BME280;41279;43.546;16.426;2023-02-28T11:36:20;52672.59;;;-146.77;75.58
55410;BME280;41279;43.546;16.426;2023-02-28T11:38:48;52702.63;;;-146.77;73.68
55410;BME280;41279;43.546;16.426;2023-02-28T11:51:35;52714.63;;;-146.77;71.22
55410;BME280;41279;43.546;16.426;2023-02-28T11:56:48;52762.69;;;-146.77;64.24
55410;BME280;41279;43.546;16.426;2023-02-28T11:59:42;52720.66;;;-146.77;64.88
55410;BME280;41279;43.546;16.426;2023-02-28T12:02:20;52700.63;;;-146.77;66.42
55410;BME280;41279;43.546;16.426;2023-02-28T12:08:22;52674.59;;;-146.77;69.84
55410;BME280;41279;43.546;16.426;2023-02-28T12:11:14;52642.56;;;-146.77;70.16
55410;BME280;41279;43.546;16.426;2023-02-28T12:16:29;52698.63;;;-146.77;71.97
55410;BME280;41279;43.546;16.426;2023-02-28T12:19:47;52598.50;;;-146.77;74.74
55410;BME280;41279;43.546;16.426;2023-02-28T12:22:29;52700.63;;;-146.77;70.46
55410;BME280;41279;43.546;16.426;2023-02-28T12:25:02;52778.72;;;-146.77;68.26
55410;BME280;41279;43.546;16.426;2023-02-28T12:27:43;52678.59;;;-146.77;67.40
55410;BME280;41279;43.546;16.426;2023-02-28T12:30:22;52654.56;;;-146.77;73.98
55410;BME280;41279;43.546;16.426;2023-02-28T12:33:11;52690.59;;;-146.77;71.47
55410;BME280;41279;43.546;16.426;2023-02-28T12:35:51;52702.63;;;-146.77;71.98
55410;BME280;41279;43.546;16.426;2023-02-28T12:38:36;52702.63;;;-146.77;71.77
55410;BME280;41279;43.546;16.426;2023-02-28T12:41:16;52692.63;;;-146.77;74.42
55410;BME280;41279;43.546;16.426;2023-02-28T12:43:55;52706.63;;;-146.77;72.41
55410;BME280;41279;43.546;16.426;2023-02-28T12:46:28;52718.63;;;-146.77;72.55
55410;BME280;41279;43.546;16.426;2023-02-28T12:49:02;52666.59;;;-146.77;78.61
55410;BME280;41279;43.546;16.426;2023-02-28T12:51:30;52748.66;;;-146.77;71.87
55410;BME280;41279;43.546;16.426;2023-02-28T12:54:32;52750.69;;;-146.77;74.27
55410;BME280;41279;43.546;16.426;2023-02-28T12:57:06;52746.66;;;-146.77;75.94
55410;BME280;41279;43.546;16.426;2023-02-28T13:05:14;52800.72;;;-146.77;65.52
55410;BME280;41279;43.546;16.426;2023-02-28T13:10:15;52700.63;;;-146.77;73.44
55410;BME280;41279;43.546;16.426;2023-02-28T13:12:49;52754.69;;;-146.77;72.36
55410;BME280;41279;43.546;16.426;2023-02-28T13:15:25;52676.59;;;-146.77;75.81
55410;BME280;41279;43.546;16.426;2023-02-28T13:17:55;52694.63;;;-146.77;80.58
55410;BME280;41279;43.546;16.426;2023-02-28T13:20:33;52706.63;;;-146.77;82.33
55410;BME280;41279;43.546;16.426;2023-02-28T13:22:59;52666.59;;;-146.77;83.83
55410;BME280;41279;43.546;16.426;2023-02-28T13:28:12;52642.56;;;-146.77;77.85
55410;BME280;41279;43.546;16.426;2023-02-28T13:35:45;52634.53;;;-146.77;77.28
55410;BME280;41279;43.546;16.426;2023-02-28T13:38:38;52674.59;;;-146.77;75.22
55410;BME280;41279;43.546;16.426;2023-02-28T13:44:16;52680.59;;;-146.77;80.40
55410;BME280;41279;43.546;16.426;2023-02-28T13:51:52;52714.63;;;-146.77;80.92
55410;BME280;41279;43.546;16.426;2023-02-28T14:02:36;52682.59;;;-146.77;88.74
55410;BME280;41279;43.546;16.426;2023-02-28T14:05:12;52792.72;;;-146.77;92.96
55410;BME280;41279;43.546;16.426;2023-02-28T14:07:44;52766.69;;;-146.77;95.24
55410;BME280;41279;43.546;16.426;2023-02-28T14:10:22;52826.75;;;-146.77;100.00
55410;BME280;41279;43.546;16.426;2023-02-28T14:20:48;52980.94;;;-146.77;100.00
55410;BME280;41279;43.546;16.426;2023-02-28T14:25:54;52896.84;;;-146.77;100.00
55410;BME280;41279;43.546;16.426;2023-02-28T14:28:44;52808.75;;;-146.77;100.00
55410;BME280;41279;43.546;16.426;2023-02-28T14:31:18;52808.75;;;-146.77;100.00
55410;BME280;41279;43.546;16.426;2023-02-28T14:36:21;52730.66;;;-146.77;100.00
55410;BME280;41279;43.546;16.426;2023-02-28T14:38:52;52784.72;;;-146.77;99.52